sensor_id;sensor_type;location;lat;lon;timestamp;P1;durP1;ratioP1;P2;durP2;ratioP2
2434;SDS011;1228;51.022;6.764;2023-01-08T00:02:15;4.77;;;4.47;;
2434;SDS011;1228;51.022;6.764;2023-01-08T00:04:41;4.30;;;4.10;;
2434;SDS011;1228;51.022;6.764;2023-01-08T00:07:07;5.00;;;4.70;;
2434;SDS011;1228;51.022;6.764;2023-01-08T00:09:33;5.50;;;5.27;;
2434;SDS011;1228;51.022;6.764;2023-01-08T00:11:58;4.60;;;4.40;;
2434;SDS011;1228;51.022;6.764;2023-01-08T00:14:24;4.67;;;4.47;;
2434;SDS011;1228;51.022;6.764;2023-01-08T00:16:49;4.80;;;4.60;;
2434;SDS011;1228;51.022;6.764;2023-01-08T00:19:15;4.53;;;4.33;;
2434;SDS011;1228;51.022;6.764;2023-01-08T00:21:41;5.00;;;4.80;;
2434;SDS011;1228;51.022;6.764;2023-01-08T00:24:07;5.00;;;4.80;;
2434;SDS011;1228;51.022;6.764;2023-01-08T00:26:32;4.73;;;4.53;;
2434;SDS011;1228;51.022;6.764;2023-01-08T00:28:58;4.67;;;4.47;;
2434;SDS011;1228;51.022;6.764;2023-01-08T00:31:23;5.40;;;4.90;;
2434;SDS011;1228;51.022;6.764;2023-01-08T00:33:49;5.43;;;5.03;;
2434;SDS011;1228;51.022;6.764;2023-01-08T00:36:15;4.63;;;4.43;;
2434;SDS011;1228;51.022;6.764;2023-01-08T00:38:42;7.63;;;5.40;;
2434;SDS011;1228;51.022;6.764;2023-01-08T00:41:09;5.07;;;4.87;;
2434;SDS011;1228;51.022;6.764;2023-01-08T00:43:36;5.47;;;5.17;;
2434;SDS011;1228;51.022;6.764;2023-01-08T00:46:02;5.33;;;5.03;;
2434;SDS011;1228;51.022;6.764;2023-01-08T00:48:28;7.27;;;6.67;;
2434;SDS011;1228;51.022;6.764;2023-01-08T00:50:55;5.33;;;4.93;;
2434;SDS011;1228;51.022;6.764;2023-01-08T00:53:20;5.60;;;5.30;;
2434;SDS011;1228;51.022;6.764;2023-01-08T00:55:46;5.07;;;4.87;;
2434;SDS011;1228;51.022;6.764;2023-01-08T00:58:12;5.33;;;4.97;;
2434;SDS011;1228;51.022;6.764;2023-01-08T01:00:38;5.20;;;4.90;;
2434;SDS011;1228;51.022;6.764;2023-01-08T01:03:04;4.70;;;4.50;;
2434;SDS011;1228;51.022;6.764;2023-01-08T01:05:30;4.90;;;4.70;;
2434;SDS011;1228;51.022;6.764;2023-01-08T01:07:56;4.93;;;4.73;;
2434;SDS011;1228;51.022;6.764;2023-01-08T01:10:21;5.70;;;5.30;;
2434;SDS011;1228;51.022;6.764;2023-01-08T01:12:48;5.20;;;4.93;;
2434;SDS011;1228;51.022;6.764;2023-01-08T01:15:14;5.17;;;4.87;;
2434;SDS011;1228;51.022;6.764;2023-01-08T01:17:42;4.90;;;4.70;;
2434;SDS011;1228;51.022;6.764;2023-01-08T01:20:10;5.13;;;4.93;;
2434;SDS011;1228;51.022;6.764;2023-01-08T01:22:39;4.67;;;4.47;;
2434;SDS011;1228;51.022;6.764;2023-01-08T01:25:05;5.10;;;4.90;;
2434;SDS011;1228;51.022;6.764;2023-01-08T01:27:31;4.50;;;4.30;;
2434;SDS011;1228;51.022;6.764;2023-01-08T01:29:57;4.93;;;4.63;;
2434;SDS011;1228;51.022;6.764;2023-01-08T01:32:22;5.30;;;5.00;;
2434;SDS011;1228;51.022;6.764;2023-01-08T01:34:48;5.20;;;4.80;;
2434;SDS011;1228;51.022;6.764;2023-01-08T01:37:14;5.03;;;4.80;;
2434;SDS011;1228;51.022;6.764;2023-01-08T01:39:40;5.00;;;4.80;;
2434;SDS011;1228;51.022;6.764;2023-01-08T01:42:14;4.90;;;4.70;;
2434;SDS011;1228;51.022;6.764;2023-01-08T01:45:00;4.70;;;4.50;;
2434;SDS011;1228;51.022;6.764;2023-01-08T01:47:31;4.87;;;4.63;;
2434;SDS011;1228;51.022;6.764;2023-01-08T01:52:32;5.53;;;5.33;;
2434;SDS011;1228;51.022;6.764;2023-01-08T01:55:06;5.57;;;5.33;;
2434;SDS011;1228;51.022;6.764;2023-01-08T01:57:33;5.67;;;5.37;;
2434;SDS011;1228;51.022;6.764;2023-01-08T02:00:00;5.97;;;5.67;;
2434;SDS011;1228;51.022;6.764;2023-01-08T02:02:28;5.90;;;5.50;;
2434;SDS011;1228;51.022;6.764;2023-01-08T02:04:56;5.63;;;5.23;;
2434;SDS011;1228;51.022;6.764;2023-01-08T02:08:05;5.60;;;5.30;;
2434;SDS011;1228;51.022;6.764;2023-01-08T02:10:29;5.53;;;5.13;;
2434;SDS011;1228;51.022;6.764;2023-01-08T02:13:06;5.73;;;5.40;;
2434;SDS011;1228;51.022;6.764;2023-01-08T02:18:14;5.50;;;5.20;;
2434;SDS011;1228;51.022;6.764;2023-01-08T02:20:45;6.17;;;5.67;;
2434;SDS011;1228;51.022;6.764;2023-01-08T02:25:55;6.70;;;6.30;;
2434;SDS011;1228;51.022;6.764;2023-01-08T02:28:24;5.43;;;5.13;;
2434;SDS011;1228;51.022;6.764;2023-01-08T02:30:51;5.60;;;5.30;;
2434;SDS011;1228;51.022;6.764;2023-01-08T02:33:18;5.20;;;4.90;;
2434;SDS011;1228;51.022;6.764;2023-01-08T02:35:46;6.23;;;5.63;;
2434;SDS011;1228;51.022;6.764;2023-01-08T02:38:17;5.10;;;4.90;;
2434;SDS011;1228;51.022;6.764;2023-01-08T02:43:28;5.87;;;5.57;;
2434;SDS011;1228;51.022;6.764;2023-01-08T02:46:06;5.57;;;5.33;;
2434;SDS011;1228;51.022;6.764;2023-01-08T02:48:38;5.20;;;4.90;;
2434;SDS011;1228;51.022;6.764;2023-01-08T02:51:11;5.47;;;5.23;;
2434;SDS011;1228;51.022;6.764;2023-01-08T02:53:44;5.17;;;4.87;;
2434;SDS011;1228;51.022;6.764;2023-01-08T02:56:15;5.60;;;5.30;;
2434;SDS011;1228;51.022;6.764;2023-01-08T02:58:44;7.83;;;5.40;;
2434;SDS011;1228;51.022;6.764;2023-01-08T03:01:14;5.50;;;5.30;;
2434;SDS011;1228;51.022;6.764;2023-01-08T03:03:45;5.43;;;5.13;;
2434;SDS011;1228;51.022;6.764;2023-01-08T03:06:15;5.97;;;5.57;;
2434;SDS011;1228;51.022;6.764;2023-01-08T03:08:44;4.97;;;4.73;;
2434;SDS011;1228;51.022;6.764;2023-01-08T03:11:13;5.20;;;4.90;;
2434;SDS011;1228;51.022;6.764;2023-01-08T03:16:44;5.60;;;5.30;;
2434;SDS011;1228;51.022;6.764;2023-01-08T03:19:20;5.90;;;5.50;;
2434;SDS011;1228;51.022;6.764;2023-01-08T03:21:52;6.73;;;5.60;;
2434;SDS011;1228;51.022;6.764;2023-01-08T03:24:21;5.07;;;4.77;;
2434;SDS011;1228;51.022;6.764;2023-01-08T03:26:52;5.57;;;5.27;;
2434;SDS011;1228;51.022;6.764;2023-01-08T03:29:23;5.20;;;5.00;;
2434;SDS011;1228;51.022;6.764;2023-01-08T03:31:50;5.97;;;5.67;;
2434;SDS011;1228;51.022;6.764;2023-01-08T03:34:20;5.97;;;5.47;;
2434;SDS011;1228;51.022;6.764;2023-01-08T03:36:48;5.43;;;5.03;;
2434;SDS011;1228;51.022;6.764;2023-01-08T03:40:02;5.10;;;4.80;;
2434;SDS011;1228;51.022;6.764;2023-01-08T03:42:08;6.33;;;5.87;;
2434;SDS011;1228;51.022;6.764;2023-01-08T03:44:38;7.37;;;5.20;;
2434;SDS011;1228;51.022;6.764;2023-01-08T03:47:03;6.17;;;5.57;;
2434;SDS011;1228;51.022;6.764;2023-01-08T03:49:32;5.77;;;5.47;;
2434;SDS011;1228;51.022;6.764;2023-01-08T03:51:59;5.60;;;5.30;;
2434;SDS011;1228;51.022;6.764;2023-01-08T03:54:27;5.70;;;5.40;;
2434;SDS011;1228;51.022;6.764;2023-01-08T03:56:56;5.07;;;4.70;;
2434;SDS011;1228;51.022;6.764;2023-01-08T03:59:21;5.70;;;5.40;;
2434;SDS011;1228;51.022;6.764;2023-01-08T04:01:47;6.03;;;5.63;;
2434;SDS011;1228;51.022;6.764;2023-01-08T04:04:12;5.17;;;4.97;;
2434;SDS011;1228;51.022;6.764;2023-01-08T04:06:38;5.37;;;5.07;;
2434;SDS011;1228;51.022;6.764;2023-01-08T04:09:04;6.30;;;5.90;;
2434;SDS011;1228;51.022;6.764;2023-01-08T04:11:30;5.43;;;4.93;;
2434;SDS011;1228;51.022;6.764;2023-01-08T04:13:56;5.20;;;4.80;;
2434;SDS011;1228;51.022;6.764;2023-01-08T04:16:21;5.07;;;4.87;;
2434;SDS011;1228;51.022;6.764;2023-01-08T04:18:47;5.80;;;5.50;;
2434;SDS011;1228;51.022;6.764;2023-01-08T04:21:13;5.13;;;4.87;;
2434;SDS011;1228;51.022;6.764;2023-01-08T04:23:38;5.00;;;4.80;;
2434;SDS011;1228;51.022;6.764;2023-01-08T04:26:04;4.80;;;4.60;;
2434;SDS011;1228;51.022;6.764;2023-01-08T04:28:31;5.33;;;5.03;;
2434;SDS011;1228;51.022;6.764;2023-01-08T04:30:56;5.93;;;5.53;;
2434;SDS011;1228;51.022;6.764;2023-01-08T04:33:22;5.10;;;4.83;;
2434;SDS011;1228;51.022;6.764;2023-01-08T04:35:49;5.17;;;4.97;;
2434;SDS011;1228;51.022;6.764;2023-01-08T04:38:15;5.30;;;5.00;;
2434;SDS011;1228;51.022;6.764;2023-01-08T04:40:41;4.83;;;4.63;;
2434;SDS011;1228;51.022;6.764;2023-01-08T04:43:06;5.13;;;4.93;;
2434;SDS011;1228;51.022;6.764;2023-01-08T04:45:32;5.67;;;5.37;;
2434;SDS011;1228;51.022;6.764;2023-01-08T04:47:58;5.40;;;5.10;;
2434;SDS011;1228;51.022;6.764;2023-01-08T04:50:24;5.60;;;5.33;;
2434;SDS011;1228;51.022;6.764;2023-01-08T04:52:50;4.97;;;4.77;;
2434;SDS011;1228;51.022;6.764;2023-01-08T04:55:16;4.70;;;4.50;;
2434;SDS011;1228;51.022;6.764;2023-01-08T04:57:42;5.43;;;5.13;;
2434;SDS011;1228;51.022;6.764;2023-01-08T05:00:08;4.37;;;4.17;;
2434;SDS011;1228;51.022;6.764;2023-01-08T05:02:34;4.83;;;4.63;;
2434;SDS011;1228;51.022;6.764;2023-01-08T05:04:59;4.70;;;4.40;;
2434;SDS011;1228;51.022;6.764;2023-01-08T05:07:25;4.80;;;4.60;;
2434;SDS011;1228;51.022;6.764;2023-01-08T05:09:51;4.60;;;4.40;;
2434;SDS011;1228;51.022;6.764;2023-01-08T05:12:16;4.83;;;4.63;;
2434;SDS011;1228;51.022;6.764;2023-01-08T05:14:42;4.40;;;4.20;;
2434;SDS011;1228;51.022;6.764;2023-01-08T05:17:08;4.90;;;4.70;;
2434;SDS011;1228;51.022;6.764;2023-01-08T05:19:33;4.97;;;4.77;;
2434;SDS011;1228;51.022;6.764;2023-01-08T05:21:59;5.43;;;5.20;;
2434;SDS011;1228;51.022;6.764;2023-01-08T05:24:24;4.60;;;4.40;;
2434;SDS011;1228;51.022;6.764;2023-01-08T05:26:50;5.07;;;4.87;;
2434;SDS011;1228;51.022;6.764;2023-01-08T05:29:16;5.13;;;4.93;;
2434;SDS011;1228;51.022;6.764;2023-01-08T05:31:41;4.90;;;4.70;;
2434;SDS011;1228;51.022;6.764;2023-01-08T05:34:07;5.30;;;4.90;;
2434;SDS011;1228;51.022;6.764;2023-01-08T05:36:33;5.10;;;4.90;;
2434;SDS011;1228;51.022;6.764;2023-01-08T05:38:59;5.50;;;5.27;;
2434;SDS011;1228;51.022;6.764;2023-01-08T05:41:24;5.10;;;4.90;;
2434;SDS011;1228;51.022;6.764;2023-01-08T05:43:50;5.37;;;5.17;;
2434;SDS011;1228;51.022;6.764;2023-01-08T05:46:15;5.77;;;5.57;;
2434;SDS011;1228;51.022;6.764;2023-01-08T05:48:41;5.37;;;5.17;;
2434;SDS011;1228;51.022;6.764;2023-01-08T05:51:06;5.40;;;5.10;;
2434;SDS011;1228;51.022;6.764;2023-01-08T05:53:32;5.03;;;4.83;;
2434;SDS011;1228;51.022;6.764;2023-01-08T05:55:59;4.90;;;4.70;;
2434;SDS011;1228;51.022;6.764;2023-01-08T05:58:29;5.03;;;4.83;;
2434;SDS011;1228;51.022;6.764;2023-01-08T06:01:00;5.33;;;5.03;;
2434;SDS011;1228;51.022;6.764;2023-01-08T06:03:35;5.73;;;5.53;;
2434;SDS011;1228;51.022;6.764;2023-01-08T06:06:02;4.70;;;4.50;;
2434;SDS011;1228;51.022;6.764;2023-01-08T06:08:29;4.90;;;4.70;;
2434;SDS011;1228;51.022;6.764;2023-01-08T06:10:58;5.53;;;5.27;;
2434;SDS011;1228;51.022;6.764;2023-01-08T06:13:29;5.13;;;4.93;;
2434;SDS011;1228;51.022;6.764;2023-01-08T06:15:57;5.37;;;5.17;;
2434;SDS011;1228;51.022;6.764;2023-01-08T06:18:24;5.07;;;4.87;;
2434;SDS011;1228;51.022;6.764;2023-01-08T06:20:50;5.33;;;5.13;;
2434;SDS011;1228;51.022;6.764;2023-01-08T06:23:15;4.80;;;4.60;;
2434;SDS011;1228;51.022;6.764;2023-01-08T06:25:41;5.07;;;4.80;;
2434;SDS011;1228;51.022;6.764;2023-01-08T06:28:06;5.10;;;4.90;;
2434;SDS011;1228;51.022;6.764;2023-01-08T06:30:32;4.87;;;4.67;;
2434;SDS011;1228;51.022;6.764;2023-01-08T06:32:58;5.40;;;5.20;;
2434;SDS011;1228;51.022;6.764;2023-01-08T06:35:24;4.93;;;4.73;;
2434;SDS011;1228;51.022;6.764;2023-01-08T06:37:51;5.10;;;4.90;;
2434;SDS011;1228;51.022;6.764;2023-01-08T06:40:19;4.57;;;4.37;;
2434;SDS011;1228;51.022;6.764;2023-01-08T06:42:45;5.47;;;5.17;;
2434;SDS011;1228;51.022;6.764;2023-01-08T06:45:10;5.17;;;4.90;;
2434;SDS011;1228;51.022;6.764;2023-01-08T06:47:36;5.27;;;5.07;;
2434;SDS011;1228;51.022;6.764;2023-01-08T06:50:02;5.47;;;5.27;;
2434;SDS011;1228;51.022;6.764;2023-01-08T06:52:29;5.37;;;5.07;;
2434;SDS011;1228;51.022;6.764;2023-01-08T06:54:55;5.37;;;5.07;;
2434;SDS011;1228;51.022;6.764;2023-01-08T06:57:21;5.50;;;5.30;;
2434;SDS011;1228;51.022;6.764;2023-01-08T06:59:46;5.43;;;5.10;;
2434;SDS011;1228;51.022;6.764;2023-01-08T07:02:12;5.23;;;5.00;;
2434;SDS011;1228;51.022;6.764;2023-01-08T07:04:39;6.63;;;5.00;;
2434;SDS011;1228;51.022;6.764;2023-01-08T07:07:05;5.30;;;5.10;;
2434;SDS011;1228;51.022;6.764;2023-01-08T07:09:32;5.33;;;5.13;;
2434;SDS011;1228;51.022;6.764;2023-01-08T07:11:58;5.43;;;5.03;;
2434;SDS011;1228;51.022;6.764;2023-01-08T07:14:24;5.07;;;4.87;;
2434;SDS011;1228;51.022;6.764;2023-01-08T07:16:49;5.00;;;4.80;;
2434;SDS011;1228;51.022;6.764;2023-01-08T07:19:15;5.97;;;5.77;;
2434;SDS011;1228;51.022;6.764;2023-01-08T07:21:41;5.40;;;5.20;;
2434;SDS011;1228;51.022;6.764;2023-01-08T07:24:06;6.07;;;5.77;;
2434;SDS011;1228;51.022;6.764;2023-01-08T07:26:32;6.40;;;5.83;;
2434;SDS011;1228;51.022;6.764;2023-01-08T07:28:58;5.00;;;4.80;;
2434;SDS011;1228;51.022;6.764;2023-01-08T07:31:23;5.03;;;4.83;;
2434;SDS011;1228;51.022;6.764;2023-01-08T07:33:49;5.30;;;5.10;;
2434;SDS011;1228;51.022;6.764;2023-01-08T07:36:15;5.73;;;5.43;;
2434;SDS011;1228;51.022;6.764;2023-01-08T07:38:46;5.97;;;5.53;;
2434;SDS011;1228;51.022;6.764;2023-01-08T07:41:14;5.37;;;4.83;;
2434;SDS011;1228;51.022;6.764;2023-01-08T07:43:41;5.67;;;5.47;;
2434;SDS011;1228;51.022;6.764;2023-01-08T07:46:07;6.10;;;5.70;;
2434;SDS011;1228;51.022;6.764;2023-01-08T07:48:32;5.10;;;4.90;;
2434;SDS011;1228;51.022;6.764;2023-01-08T07:51:01;6.23;;;5.63;;
2434;SDS011;1228;51.022;6.764;2023-01-08T07:53:28;6.20;;;5.90;;
2434;SDS011;1228;51.022;6.764;2023-01-08T07:56:00;6.73;;;5.73;;
2434;SDS011;1228;51.022;6.764;2023-01-08T07:58:27;6.00;;;5.70;;
2434;SDS011;1228;51.022;6.764;2023-01-08T08:00:52;6.17;;;5.67;;
2434;SDS011;1228;51.022;6.764;2023-01-08T08:03:18;5.73;;;5.43;;
2434;SDS011;1228;51.022;6.764;2023-01-08T08:05:44;6.97;;;6.47;;
2434;SDS011;1228;51.022;6.764;2023-01-08T08:08:10;5.53;;;5.23;;
2434;SDS011;1228;51.022;6.764;2023-01-08T08:10:37;5.53;;;5.33;;
2434;SDS011;1228;51.022;6.764;2023-01-08T08:13:03;5.93;;;5.63;;
2434;SDS011;1228;51.022;6.764;2023-01-08T08:15:29;10.30;;;6.33;;
2434;SDS011;1228;51.022;6.764;2023-01-08T08:17:55;5.70;;;5.40;;
2434;SDS011;1228;51.022;6.764;2023-01-08T08:20:20;5.70;;;5.30;;
2434;SDS011;1228;51.022;6.764;2023-01-08T08:22:46;6.13;;;5.73;;
2434;SDS011;1228;51.022;6.764;2023-01-08T08:25:11;5.67;;;5.37;;
2434;SDS011;1228;51.022;6.764;2023-01-08T08:27:39;6.70;;;5.67;;
2434;SDS011;1228;51.022;6.764;2023-01-08T08:30:05;6.63;;;6.13;;
2434;SDS011;1228;51.022;6.764;2023-01-08T08:32:31;6.30;;;6.00;;
2434;SDS011;1228;51.022;6.764;2023-01-08T08:34:57;6.87;;;6.20;;
2434;SDS011;1228;51.022;6.764;2023-01-08T08:37:23;12.87;;;7.17;;
2434;SDS011;1228;51.022;6.764;2023-01-08T08:39:49;12.20;;;7.23;;
2434;SDS011;1228;51.022;6.764;2023-01-08T08:42:14;8.50;;;7.23;;
2434;SDS011;1228;51.022;6.764;2023-01-08T08:44:40;11.23;;;8.40;;
2434;SDS011;1228;51.022;6.764;2023-01-08T08:47:06;25.33;;;10.17;;
2434;SDS011;1228;51.022;6.764;2023-01-08T08:49:33;12.40;;;8.13;;
2434;SDS011;1228;51.022;6.764;2023-01-08T08:52:00;18.37;;;7.97;;
2434;SDS011;1228;51.022;6.764;2023-01-08T08:54:26;26.10;;;11.13;;
2434;SDS011;1228;51.022;6.764;2023-01-08T08:56:51;8.63;;;6.80;;
2434;SDS011;1228;51.022;6.764;2023-01-08T08:59:17;5.33;;;4.93;;
2434;SDS011;1228;51.022;6.764;2023-01-08T09:01:42;5.40;;;5.10;;
2434;SDS011;1228;51.022;6.764;2023-01-08T09:04:08;6.10;;;5.70;;
2434;SDS011;1228;51.022;6.764;2023-01-08T09:06:34;5.90;;;5.47;;
2434;SDS011;1228;51.022;6.764;2023-01-08T09:08:59;5.97;;;5.67;;
2434;SDS011;1228;51.022;6.764;2023-01-08T09:11:25;7.03;;;6.47;;
2434;SDS011;1228;51.022;6.764;2023-01-08T09:13:50;5.27;;;5.07;;
2434;SDS011;1228;51.022;6.764;2023-01-08T09:16:16;5.20;;;5.00;;
2434;SDS011;1228;51.022;6.764;2023-01-08T09:18:42;5.50;;;5.30;;
2434;SDS011;1228;51.022;6.764;2023-01-08T09:21:08;5.90;;;5.60;;
2434;SDS011;1228;51.022;6.764;2023-01-08T09:23:34;10.50;;;5.60;;
2434;SDS011;1228;51.022;6.764;2023-01-08T09:26:00;5.87;;;5.40;;
2434;SDS011;1228;51.022;6.764;2023-01-08T09:28:27;5.60;;;5.20;;
2434;SDS011;1228;51.022;6.764;2023-01-08T09:30:52;12.60;;;5.37;;
2434;SDS011;1228;51.022;6.764;2023-01-08T09:33:18;4.97;;;4.63;;
2434;SDS011;1228;51.022;6.764;2023-01-08T09:35:43;5.17;;;4.63;;
2434;SDS011;1228;51.022;6.764;2023-01-08T09:38:09;4.87;;;4.40;;
2434;SDS011;1228;51.022;6.764;2023-01-08T09:40:42;4.10;;;3.90;;
2434;SDS011;1228;51.022;6.764;2023-01-08T09:43:13;6.30;;;4.40;;
2434;SDS011;1228;51.022;6.764;2023-01-08T09:45:41;4.60;;;4.40;;
2434;SDS011;1228;51.022;6.764;2023-01-08T09:48:13;4.13;;;3.83;;
2434;SDS011;1228;51.022;6.764;2023-01-08T09:50:41;4.40;;;4.00;;
2434;SDS011;1228;51.022;6.764;2023-01-08T09:53:09;3.57;;;3.37;;
2434;SDS011;1228;51.022;6.764;2023-01-08T09:55:39;4.20;;;4.00;;
2434;SDS011;1228;51.022;6.764;2023-01-08T09:58:15;4.07;;;3.87;;
2434;SDS011;1228;51.022;6.764;2023-01-08T10:00:57;4.23;;;3.70;;
2434;SDS011;1228;51.022;6.764;2023-01-08T10:03:26;3.83;;;3.53;;
2434;SDS011;1228;51.022;6.764;2023-01-08T10:05:55;4.10;;;3.80;;
2434;SDS011;1228;51.022;6.764;2023-01-08T10:08:20;6.60;;;3.80;;
2434;SDS011;1228;51.022;6.764;2023-01-08T10:10:46;3.70;;;3.40;;
2434;SDS011;1228;51.022;6.764;2023-01-08T10:13:12;3.43;;;3.23;;
2434;SDS011;1228;51.022;6.764;2023-01-08T10:15:39;3.83;;;3.60;;
2434;SDS011;1228;51.022;6.764;2023-01-08T10:18:23;3.50;;;3.30;;
2434;SDS011;1228;51.022;6.764;2023-01-08T10:20:51;3.63;;;3.33;;
2434;SDS011;1228;51.022;6.764;2023-01-08T10:23:17;3.70;;;3.60;;
2434;SDS011;1228;51.022;6.764;2023-01-08T10:25:52;3.33;;;3.23;;
2434;SDS011;1228;51.022;6.764;2023-01-08T10:28:28;3.33;;;3.20;;
2434;SDS011;1228;51.022;6.764;2023-01-08T10:31:07;4.03;;;3.70;;
2434;SDS011;1228;51.022;6.764;2023-01-08T10:33:39;3.70;;;3.40;;
2434;SDS011;1228;51.022;6.764;2023-01-08T10:36:07;4.03;;;3.73;;
2434;SDS011;1228;51.022;6.764;2023-01-08T10:38:41;3.73;;;3.43;;
2434;SDS011;1228;51.022;6.764;2023-01-08T10:41:14;4.67;;;3.03;;
2434;SDS011;1228;51.022;6.764;2023-01-08T10:46:18;3.50;;;3.30;;
2434;SDS011;1228;51.022;6.764;2023-01-08T10:49:00;3.30;;;3.10;;
2434;SDS011;1228;51.022;6.764;2023-01-08T10:51:29;3.37;;;3.10;;
2434;SDS011;1228;51.022;6.764;2023-01-08T10:54:10;3.33;;;3.13;;
2434;SDS011;1228;51.022;6.764;2023-01-08T10:56:39;3.83;;;3.63;;
2434;SDS011;1228;51.022;6.764;2023-01-08T10:59:17;3.60;;;3.30;;
2434;SDS011;1228;51.022;6.764;2023-01-08T11:01:47;3.80;;;3.40;;
2434;SDS011;1228;51.022;6.764;2023-01-08T11:04:15;3.53;;;3.33;;
2434;SDS011;1228;51.022;6.764;2023-01-08T11:06:46;4.83;;;3.67;;
2434;SDS011;1228;51.022;6.764;2023-01-08T11:11:49;3.40;;;3.20;;
2434;SDS011;1228;51.022;6.764;2023-01-08T11:14:27;3.80;;;3.50;;
2434;SDS011;1228;51.022;6.764;2023-01-08T11:16:59;3.90;;;3.70;;
2434;SDS011;1228;51.022;6.764;2023-01-08T11:19:33;3.63;;;3.40;;
2434;SDS011;1228;51.022;6.764;2023-01-08T11:22:03;4.23;;;3.70;;
2434;SDS011;1228;51.022;6.764;2023-01-08T11:27:05;4.00;;;3.80;;
2434;SDS011;1228;51.022;6.764;2023-01-08T11:29:37;3.60;;;3.37;;
2434;SDS011;1228;51.022;6.764;2023-01-08T11:35:05;4.00;;;3.70;;
2434;SDS011;1228;51.022;6.764;2023-01-08T11:37:53;3.90;;;3.60;;
2434;SDS011;1228;51.022;6.764;2023-01-08T11:43:11;3.80;;;3.50;;
2434;SDS011;1228;51.022;6.764;2023-01-08T11:51:34;4.10;;;3.80;;
2434;SDS011;1228;51.022;6.764;2023-01-08T12:00:35;3.70;;;3.60;;
2434;SDS011;1228;51.022;6.764;2023-01-08T12:03:20;4.00;;;3.80;;
2434;SDS011;1228;51.022;6.764;2023-01-08T12:08:39;3.90;;;3.70;;
2434;SDS011;1228;51.022;6.764;2023-01-08T12:13:56;3.87;;;3.73;;
2434;SDS011;1228;51.022;6.764;2023-01-08T12:19:13;3.60;;;3.50;;
2434;SDS011;1228;51.022;6.764;2023-01-08T12:22:03;3.90;;;3.60;;
2434;SDS011;1228;51.022;6.764;2023-01-08T12:30:53;4.10;;;3.90;;
2434;SDS011;1228;51.022;6.764;2023-01-08T12:33:50;4.93;;;4.33;;
2434;SDS011;1228;51.022;6.764;2023-01-08T12:36:43;3.93;;;3.73;;
2434;SDS011;1228;51.022;6.764;2023-01-08T12:42:16;3.80;;;3.60;;
2434;SDS011;1228;51.022;6.764;2023-01-08T12:44:48;3.70;;;3.60;;
2434;SDS011;1228;51.022;6.764;2023-01-08T12:47:19;5.13;;;3.90;;
2434;SDS011;1228;51.022;6.764;2023-01-08T12:49:49;3.70;;;3.50;;
2434;SDS011;1228;51.022;6.764;2023-01-08T12:52:26;4.33;;;3.97;;
2434;SDS011;1228;51.022;6.764;2023-01-08T12:55:15;4.07;;;3.87;;
2434;SDS011;1228;51.022;6.764;2023-01-08T12:58:01;4.07;;;3.80;;
2434;SDS011;1228;51.022;6.764;2023-01-08T13:03:46;3.80;;;3.70;;
2434;SDS011;1228;51.022;6.764;2023-01-08T13:06:13;3.70;;;3.50;;
2434;SDS011;1228;51.022;6.764;2023-01-08T13:08:49;4.30;;;4.00;;
2434;SDS011;1228;51.022;6.764;2023-01-08T13:11:24;4.30;;;4.00;;
2434;SDS011;1228;51.022;6.764;2023-01-08T13:14:02;4.10;;;3.90;;
2434;SDS011;1228;51.022;6.764;2023-01-08T13:16:36;4.10;;;3.80;;
2434;SDS011;1228;51.022;6.764;2023-01-08T13:19:03;4.20;;;3.80;;
2434;SDS011;1228;51.022;6.764;2023-01-08T13:24:04;4.17;;;3.77;;
2434;SDS011;1228;51.022;6.764;2023-01-08T13:26:44;3.90;;;3.73;;
2434;SDS011;1228;51.022;6.764;2023-01-08T13:29:34;4.50;;;4.17;;
2434;SDS011;1228;51.022;6.764;2023-01-08T13:35:13;7.30;;;4.70;;
2434;SDS011;1228;51.022;6.764;2023-01-08T13:37:49;4.33;;;4.03;;
2434;SDS011;1228;51.022;6.764;2023-01-08T13:45:40;4.37;;;4.17;;
2434;SDS011;1228;51.022;6.764;2023-01-08T13:48:19;5.07;;;4.77;;
2434;SDS011;1228;51.022;6.764;2023-01-08T13:50:50;7.07;;;4.33;;
2434;SDS011;1228;51.022;6.764;2023-01-08T13:53:16;4.67;;;4.37;;
2434;SDS011;1228;51.022;6.764;2023-01-08T13:55:46;5.17;;;4.63;;
2434;SDS011;1228;51.022;6.764;2023-01-08T13:58:17;6.60;;;5.30;;
2434;SDS011;1228;51.022;6.764;2023-01-08T14:00:48;4.70;;;4.40;;
2434;SDS011;1228;51.022;6.764;2023-01-08T14:03:34;5.57;;;5.00;;
2434;SDS011;1228;51.022;6.764;2023-01-08T14:06:07;9.83;;;5.50;;
2434;SDS011;1228;51.022;6.764;2023-01-08T14:11:22;7.63;;;6.80;;
2434;SDS011;1228;51.022;6.764;2023-01-08T14:13:52;7.67;;;6.43;;
2434;SDS011;1228;51.022;6.764;2023-01-08T14:16:17;9.40;;;5.60;;
2434;SDS011;1228;51.022;6.764;2023-01-08T14:18:44;13.20;;;7.13;;
2434;SDS011;1228;51.022;6.764;2023-01-08T14:21:13;9.43;;;6.77;;
2434;SDS011;1228;51.022;6.764;2023-01-08T14:23:44;11.80;;;7.10;;
2434;SDS011;1228;51.022;6.764;2023-01-08T14:29:01;4.30;;;4.10;;
2434;SDS011;1228;51.022;6.764;2023-01-08T14:31:47;5.17;;;4.87;;
2434;SDS011;1228;51.022;6.764;2023-01-08T14:34:17;4.40;;;4.17;;
2434;SDS011;1228;51.022;6.764;2023-01-08T14:36:44;5.60;;;5.13;;
2434;SDS011;1228;51.022;6.764;2023-01-08T14:39:32;11.67;;;7.97;;
2434;SDS011;1228;51.022;6.764;2023-01-08T14:42:00;6.20;;;5.63;;
2434;SDS011;1228;51.022;6.764;2023-01-08T14:44:54;13.40;;;7.03;;
2434;SDS011;1228;51.022;6.764;2023-01-08T14:47:21;5.10;;;4.70;;
2434;SDS011;1228;51.022;6.764;2023-01-08T14:49:52;4.93;;;4.60;;
2434;SDS011;1228;51.022;6.764;2023-01-08T14:52:18;4.77;;;4.57;;
2434;SDS011;1228;51.022;6.764;2023-01-08T14:54:46;4.30;;;4.10;;
2434;SDS011;1228;51.022;6.764;2023-01-08T14:57:15;4.80;;;4.60;;
2434;SDS011;1228;51.022;6.764;2023-01-08T14:59:42;4.60;;;4.40;;
2434;SDS011;1228;51.022;6.764;2023-01-08T15:02:20;4.60;;;4.30;;
2434;SDS011;1228;51.022;6.764;2023-01-08T15:04:59;4.00;;;3.80;;
2434;SDS011;1228;51.022;6.764;2023-01-08T15:07:26;4.47;;;4.23;;
2434;SDS011;1228;51.022;6.764;2023-01-08T15:09:58;4.43;;;4.23;;
2434;SDS011;1228;51.022;6.764;2023-01-08T15:12:28;5.00;;;4.50;;
2434;SDS011;1228;51.022;6.764;2023-01-08T15:14:55;4.33;;;4.13;;
2434;SDS011;1228;51.022;6.764;2023-01-08T15:17:32;11.03;;;4.07;;
2434;SDS011;1228;51.022;6.764;2023-01-08T15:19:58;4.50;;;4.20;;
2434;SDS011;1228;51.022;6.764;2023-01-08T15:22:25;4.80;;;3.90;;
2434;SDS011;1228;51.022;6.764;2023-01-08T15:27:22;4.70;;;4.40;;
2434;SDS011;1228;51.022;6.764;2023-01-08T15:29:49;6.80;;;4.20;;
2434;SDS011;1228;51.022;6.764;2023-01-08T15:34:42;4.20;;;4.00;;
2434;SDS011;1228;51.022;6.764;2023-01-08T15:37:09;5.10;;;4.70;;
2434;SDS011;1228;51.022;6.764;2023-01-08T15:39:35;4.40;;;4.20;;
2434;SDS011;1228;51.022;6.764;2023-01-08T15:42:34;4.17;;;3.97;;
2434;SDS011;1228;51.022;6.764;2023-01-08T15:45:30;4.20;;;4.00;;
2434;SDS011;1228;51.022;6.764;2023-01-08T15:47:56;4.50;;;4.20;;
2434;SDS011;1228;51.022;6.764;2023-01-08T15:50:22;4.43;;;4.23;;
2434;SDS011;1228;51.022;6.764;2023-01-08T15:52:50;4.47;;;4.20;;
2434;SDS011;1228;51.022;6.764;2023-01-08T15:55:16;4.70;;;4.27;;
2434;SDS011;1228;51.022;6.764;2023-01-08T15:57:47;3.77;;;3.63;;
2434;SDS011;1228;51.022;6.764;2023-01-08T16:00:16;4.00;;;3.80;;
2434;SDS011;1228;51.022;6.764;2023-01-08T16:02:43;4.00;;;3.90;;
2434;SDS011;1228;51.022;6.764;2023-01-08T16:05:11;4.03;;;3.83;;
2434;SDS011;1228;51.022;6.764;2023-01-08T16:07:36;4.20;;;4.00;;
2434;SDS011;1228;51.022;6.764;2023-01-08T16:10:02;4.60;;;4.40;;
2434;SDS011;1228;51.022;6.764;2023-01-08T16:12:29;6.03;;;5.27;;
2434;SDS011;1228;51.022;6.764;2023-01-08T16:14:54;4.60;;;4.40;;
2434;SDS011;1228;51.022;6.764;2023-01-08T16:17:20;5.20;;;4.90;;
2434;SDS011;1228;51.022;6.764;2023-01-08T16:19:45;5.13;;;4.73;;
2434;SDS011;1228;51.022;6.764;2023-01-08T16:22:11;4.83;;;4.63;;
2434;SDS011;1228;51.022;6.764;2023-01-08T16:24:36;4.57;;;4.37;;
2434;SDS011;1228;51.022;6.764;2023-01-08T16:27:02;6.60;;;6.00;;
2434;SDS011;1228;51.022;6.764;2023-01-08T16:29:28;5.07;;;4.80;;
2434;SDS011;1228;51.022;6.764;2023-01-08T16:31:53;5.60;;;5.23;;
2434;SDS011;1228;51.022;6.764;2023-01-08T16:34:19;6.13;;;5.83;;
2434;SDS011;1228;51.022;6.764;2023-01-08T16:36:48;5.37;;;5.17;;
2434;SDS011;1228;51.022;6.764;2023-01-08T16:39:14;5.43;;;5.13;;
2434;SDS011;1228;51.022;6.764;2023-01-08T16:41:40;5.30;;;5.10;;
2434;SDS011;1228;51.022;6.764;2023-01-08T16:44:06;5.60;;;5.20;;
2434;SDS011;1228;51.022;6.764;2023-01-08T16:46:40;5.10;;;4.90;;
2434;SDS011;1228;51.022;6.764;2023-01-08T16:49:06;5.80;;;5.40;;